Data for 02/05/2006

Time Sea-Level Adjusted Pressure Absolute Pressure Temperature Relative Humidity Dew Point   
(mb) (inHg) (mb) (inHg) (C) (F) (%) (C) (F)
00:05 1011 29.85 841 24.83 -1.1 30 66 -6.6 20.1
00:10 1011 29.85 841 24.83 -1.4 29.5 67 -6.7 19.9
00:15 1012 29.88 841 24.83 -1.6 29 66 -7.2 19
00:20 1012 29.88 841 24.83 -1.7 29 66 -7.2 19
00:25 1012 29.88 841 24.83 -1.6 29.1 63 -7.8 18
00:30 1012 29.88 841 24.83 -1.3 29.7 60 -8.1 17.5
00:35 1012 29.88 841 24.83 -1 30.3 56 -8.6 16.5
00:40 1012 29.88 841 24.83 -0.7 30.8 56 -8.4 16.9
00:45 1012 29.88 841 24.83 -0.6 30.9 56 -8.3 17
00:50 1012 29.88 841 24.83 -0.7 30.8 58 -8 17.6
00:55 1012 29.88 841 24.83 -0.9 30.3 59 -7.9 17.8
01:00 1012 29.88 841 24.83 -1.2 29.9 60 -8 17.5
01:05 1012 29.88 841 24.83 -1.2 29.8 60 -7.9 17.7
01:10 1012 29.88 841 24.83 -1.3 29.6 60 -8 17.5
01:15 1012 29.88 841 24.83 -1.4 29.5 60 -8.3 17.1
01:20 1012 29.88 841 24.83 -1.4 29.5 60 -8.1 17.3
01:25 1012 29.88 841 24.83 -1.4 29.5 59 -8.3 17
01:30 1012 29.88 841 24.83 -1.3 29.6 59 -8.4 16.9
01:35 1012 29.88 841 24.83 -1.4 29.5 59 -8.4 16.9
01:40 1012 29.88 841 24.83 -1.4 29.5 59 -8.3 17.1
01:45 1012 29.88 842 24.86 -1.4 29.5 61 -8 17.5
01:50 1013 29.91 842 24.86 -1.8 28.8 62 -8.1 17.5
01:55 1013 29.91 842 24.86 -1.9 28.6 62 -8.3 17.1
02:00 1013 29.91 842 24.86 -2.1 28.2 64 -8.1 17.4
02:05 1013 29.91 842 24.86 -2.1 28.2 65 -7.9 17.9
02:10 1013 29.91 842 24.86 -2.2 28.1 66 -7.6 18.3
02:15 1013 29.91 842 24.86 -2.3 27.9 67 -7.6 18.3
02:20 1013 29.91 842 24.86 -2.3 27.9 67 -7.6 18.3
02:25 1013 29.91 842 24.86 -2.3 27.8 69 -7.3 18.8
02:30 1013 29.91 842 24.86 -2.5 27.5 70 -7.2 19.1
02:35 1013 29.91 842 24.86 -2.7 27.2 71 -7.3 18.8
02:40 1013 29.91 842 24.86 -2.7 27.1 67 -8 17.6
02:45 1013 29.91 842 24.86 -2.1 28.2 60 -8.9 16.1
02:50 1013 29.91 843 24.89 -1.5 29.2 60 -8.4 16.9
02:55 1013 29.91 843 24.89 -1.8 28.8 66 -7.3 18.9
03:00 1013 29.91 843 24.89 -2.3 27.9 68 -7.4 18.6
03:05 1013 29.91 843 24.89 -2.4 27.8 65 -8.1 17.5
03:10 1013 29.91 843 24.89 -2 28.4 61 -8.5 16.7
03:15 1013 29.91 843 24.89 -1.8 28.8 61 -8.3 17.1
03:20 1013 29.91 843 24.89 -1.8 28.8 61 -8.2 17.2
03:25 1013 29.91 843 24.89 -1.7 28.9 62 -8.1 17.4
03:30 1014 29.94 843 24.89 -1.8 28.8 61 -8.3 17
03:35 1014 29.94 843 24.89 -1.8 28.8 61 -8.3 17.1
03:40 1014 29.94 843 24.89 -1.8 28.7 61 -8.4 16.9
03:45 1014 29.94 843 24.89 -1.8 28.8 61 -8.4 16.9
03:50 1014 29.94 843 24.89 -1.8 28.7 62 -8.3 17.1
03:55 1014 29.94 843 24.89 -1.9 28.7 60 -8.5 16.7
04:00 1014 29.94 843 24.89 -1.7 28.9 61 -8.3 17
04:05 1014 29.94 843 24.89 -1.6 29.1 59 -8.6 16.6
04:10 1014 29.94 843 24.89 -1.5 29.4 60 -8.3 17.1
04:15 1014 29.94 843 24.89 -1.4 29.4 59 -8.5 16.7
04:20 1014 29.94 844 24.92 -1.4 29.6 59 -8.4 16.8
04:25 1014 29.94 844 24.92 -1.4 29.5 60 -8.2 17.2
04:30 1014 29.94 844 24.92 -1.5 29.4 61 -8 17.7
04:35 1015 29.97 844 24.92 -1.7 28.9 64 -7.6 18.3
04:40 1015 29.97 844 24.92 -1.9 28.7 65 -7.5 18.5
04:45 1015 29.97 844 24.92 -1.9 28.6 64 -7.7 18.1
04:50 1015 29.97 844 24.92 -1.9 28.6 65 -7.7 18.2
04:55 1015 29.97 844 24.92 -2 28.4 65 -7.7 18.1
05:00 1015 29.97 844 24.92 -2.1 28.2 66 -7.7 18.1
05:05 1015 29.97 844 24.92 -2.1 28.1 64 -8 17.5
05:10 1015 29.97 844 24.92 -2.1 28.3 63 -8.2 17.3
05:15 1015 29.97 844 24.92 -1.9 28.5 62 -8.3 17.1
05:20 1015 29.97 845 24.95 -1.9 28.6 62 -8.2 17.3
05:25 1015 29.97 845 24.95 -1.9 28.5 62 -8.2 17.3
05:30 1016 30 845 24.95 -1.8 28.7 62 -8.2 17.3
05:35 1016 30 845 24.95 -1.8 28.7 62 -8.1 17.5
05:40 1016 30 845 24.95 -1.9 28.7 62 -8.1 17.4
05:45 1016 30 845 24.95 -1.9 28.6 61 -8.4 16.8
05:50 1016 30 845 24.95 -1.8 28.8 60 -8.5 16.8
05:55 1016 30 845 24.95 -1.8 28.8 61 -8.4 16.9
06:00 1016 30 845 24.95 -1.8 28.8 60 -8.6 16.6
06:05 1016 30 845 24.95 -1.8 28.8 59 -8.7 16.4
06:10 1016 30 845 24.95 -1.7 28.9 60 -8.5 16.7
06:15 1016 30 846 24.98 -1.8 28.8 60 -8.5 16.6
06:20 1016 30 846 24.98 -1.8 28.7 61 -8.3 17
06:25 1017 30.03 846 24.98 -2 28.4 63 -8.1 17.5
06:30 1017 30.03 846 24.98 -2.1 28.3 64 -8 17.6
06:35 1017 30.03 846 24.98 -2.2 28.1 63 -8.2 17.2
06:40 1017 30.03 846 24.98 -2.1 28.2 64 -8.1 17.4
06:45 1017 30.03 846 24.98 -2.2 28 64 -8 17.5
06:50 1017 30.03 846 24.98 -2.3 27.9 61 -8.8 16.2
06:55 1017 30.03 846 24.98 -2.1 28.2 61 -8.7 16.3
07:00 1017 30.03 846 24.98 -2.1 28.2 60 -8.9 16
07:05 1017 30.03 846 24.98 -2.1 28.1 60 -8.8 16.1
07:10 1017 30.03 846 24.98 -2.1 28.1 60 -8.9 16
07:15 1017 30.03 846 24.98 -2.2 28 63 -8.4 16.9
07:20 1017 30.03 847 25.01 -2.3 27.8 63 -8.5 16.7
07:25 1017 30.03 847 25.01 -2.5 27.6 64 -8.5 16.8
07:30 1017 30.03 847 25.01 -2.4 27.6 64 -8.3 17
07:35 1018 30.06 847 25.01 -2.4 27.7 64 -8.4 16.9
07:40 1018 30.06 847 25.01 -2.4 27.7 65 -8.1 17.5
07:45 1018 30.06 847 25.01 -2.5 27.5 66 -7.9 17.7
07:50 1018 30.06 847 25.01 -2.5 27.5 66 -8.1 17.5
07:55 1018 30.06 847 25.01 -2.5 27.5 66 -7.9 17.7
08:00 1018 30.06 847 25.01 -2.5 27.5 67 -7.8 17.9
08:05 1018 30.06 847 25.01 -2.4 27.6 67 -7.8 17.9
08:10 1018 30.06 847 25.01 -2.5 27.6 67 -7.8 17.9
08:15 1018 30.06 847 25.01 -2.4 27.7 65 -8.1 17.4
08:20 1018 30.06 847 25.01 -2.4 27.6 64 -8.3 17.1
08:25 1018 30.06 848 25.04 -2.4 27.8 63 -8.4 16.9
08:30 1018 30.06 848 25.04 -2.3 27.8 64 -8.3 17.1
08:35 1019 30.09 848 25.04 -2.2 28 62 -8.6 16.6
08:40 1019 30.09 848 25.04 -2.1 28.1 62 -8.4 16.9
08:45 1019 30.09 848 25.04 -2.1 28.2 62 -8.4 16.9
08:50 1019 30.09 848 25.04 -2 28.3 62 -8.3 17
08:55 1019 30.09 848 25.04 -2 28.4 60 -8.8 16.2
09:00 1019 30.09 848 25.04 -2 28.5 61 -8.6 16.5
09:05 1019 30.09 848 25.04 -1.9 28.5 62 -8.4 17
09:10 1019 30.09 848 25.04 -1.8 28.7 61 -8.4 16.8
09:15 1019 30.09 848 25.04 -1.9 28.5 67 -7.3 18.8
09:20 1019 30.09 848 25.04 -2.3 27.9 68 -7.4 18.7
09:25 1019 30.09 848 25.04 -2.4 27.6 65 -8.2 17.2
09:30 1019 30.09 849 25.07 -2.3 27.9 65 -8.1 17.5
09:35 1019 30.09 849 25.07 -2.2 28.1 65 -7.9 17.7
09:40 1020 30.12 849 25.07 -1.9 28.5 64 -7.9 17.8
09:45 1020 30.12 849 25.07 -1.6 29.1 60 -8.3 17.1
09:50 1020 30.12 849 25.07 -1.4 29.5 60 -8.1 17.4
09:55 1020 30.12 849 25.07 -1.4 29.6 59 -8.3 17.1
10:00 1020 30.12 849 25.07 -1.2 29.9 57 -8.6 16.5
10:05 1020 30.12 849 25.07 -1.1 30.1 56 -8.7 16.3
10:10 1020 30.12 849 25.07 -1 30.3 58 -8.3 17
10:15 1020 30.12 849 25.07 -0.8 30.6 57 -8.3 17
10:20 1020 30.12 849 25.07 -0.7 30.7 57 -8.2 17.3
10:25 1020 30.12 849 25.07 -0.7 30.7 57 -8.2 17.2
10:30 1020 30.12 849 25.07 -1 30.2 60 -7.8 17.9
10:35 1020 30.12 849 25.07 -1.2 29.9 59 -8.2 17.2
10:40 1020 30.12 849 25.07 -0.9 30.3 56 -8.5 16.6
10:45 1020 30.12 849 25.07 -0.8 30.6 56 -8.4 16.8
10:50 1020 30.12 849 25.07 -0.6 31 56 -8.3 17
10:55 1020 30.12 849 25.07 -0.5 31.1 56 -8.3 17.1
11:00 1020 30.12 850 25.1 -0.4 31.3 56 -8.2 17.3
11:05 1020 30.12 850 25.1 -0.5 31.1 56 -8.3 17.1
11:10 1021 30.15 850 25.1 -0.4 31.4 56 -8.2 17.3
11:15 1021 30.15 850 25.1 -0.2 31.7 54 -8.3 17
11:20 1021 30.15 850 25.1 -0 31.9 55 -8.1 17.4
11:25 1021 30.15 850 25.1 0.1 32.2 55 -8 17.6
11:30 1021 30.15 850 25.1 0.5 32.8 52 -8.2 17.2
11:35 1021 30.15 850 25.1 0.5 33 53 -8 17.7
11:40 1021 30.15 850 25.1 0.6 33 53 -7.9 17.8
11:45 1021 30.15 850 25.1 0.5 33 55 -7.4 18.6
11:50 1021 30.15 850 25.1 0.7 33.2 54 -7.5 18.4
11:55 1021 30.15 850 25.1 1.3 34.4 51 -7.8 18
12:00 1021 30.15 850 25.1 1.5 34.8 50 -7.7 18.2
12:05 1021 30.15 850 25.1 1.8 35.3 49 -7.8 18
12:10 1021 30.15 850 25.1 2.1 35.8 49 -7.4 18.7
12:15 1021 30.15 850 25.1 2.4 36.3 50 -7 19.5
12:20 1021 30.15 850 25.1 1.9 35.4 48 -8.1 17.4
12:25 1021 30.15 850 25.1 2.1 35.7 48 -7.8 18
12:30 1021 30.15 850 25.1 2.1 35.8 45 -8.6 16.5
12:35 1021 30.15 850 25.1 2.3 36.1 45 -8.5 16.8
12:40 1021 30.15 850 25.1 2.5 36.5 46 -7.8 17.9
12:45 1021 30.15 850 25.1 2.8 37 44 -8.2 17.3
12:50 1021 30.15 850 25.1 2.6 36.7 45 -8.2 17.2
12:55 1021 30.15 850 25.1 2.2 36 46 -8.3 17
13:00 1021 30.15 850 25.1 1.9 35.4 46 -8.4 16.8
13:05 1021 30.15 850 25.1 1.5 34.6 47 -8.6 16.6
13:10 1021 30.15 850 25.1 1.3 34.3 48 -8.4 16.8
13:15 1021 30.15 850 25.1 1.2 34.2 48 -8.7 16.3
13:20 1021 30.15 850 25.1 0.9 33.7 49 -8.7 16.4
13:25 1021 30.15 850 25.1 0.7 33.3 51 -8.2 17.2
13:30 1021 30.15 850 25.1 0.8 33.4 50 -8.6 16.5
13:35 1021 30.15 850 25.1 0.6 33 52 -8.3 17.1
13:40 1021 30.15 850 25.1 0.5 33 52 -8.2 17.2
13:45 1021 30.15 850 25.1 0.6 33.1 51 -8.3 17
13:50 1021 30.15 850 25.1 0.7 33.2 51 -8.4 16.9
13:55 1021 30.15 850 25.1 0.7 33.3 51 -8.3 17
14:00 1021 30.15 850 25.1 0.6 33.1 51 -8.4 16.8
14:05 1021 30.15 850 25.1 0.7 33.2 51 -8.3 17.1
14:10 1021 30.15 850 25.1 0.7 33.2 51 -8.3 17.1
14:15 1021 30.15 850 25.1 0.7 33.2 51 -8.4 16.9
14:20 1021 30.15 850 25.1 0.6 33.1 53 -7.9 17.7
14:25 1021 30.15 850 25.1 0.6 33 52 -8.2 17.2
14:30 1021 30.15 850 25.1 0.5 33 52 -8.2 17.2
14:35 1021 30.15 850 25.1 0.5 32.9 52 -8.2 17.2
14:40 1021 30.15 850 25.1 0.6 33.1 52 -8.1 17.4
14:45 1021 30.15 851 25.13 0.6 33.1 52 -8 17.5
14:50 1021 30.15 851 25.13 0.7 33.3 52 -8 17.7
14:55 1021 30.15 851 25.13 0.8 33.4 51 -8.3 17
15:00 1022 30.18 851 25.13 0.9 33.5 51 -8.2 17.2
15:05 1022 30.18 851 25.13 1 33.8 51 -8 17.7
15:10 1022 30.18 851 25.13 0.9 33.6 53 -7.7 18.1
15:15 1022 30.18 851 25.13 1 33.8 52 -7.9 17.7
15:20 1022 30.18 851 25.13 1 33.7 52 -7.8 17.9
15:25 1022 30.18 851 25.13 1 33.8 53 -7.4 18.6
15:30 1022 30.18 851 25.13 0.9 33.6 54 -7.4 18.7
15:35 1022 30.18 851 25.13 0.7 33.3 55 -7.2 19
15:40 1022 30.18 851 25.13 0.8 33.4 54 -7.6 18.3
15:45 1022 30.18 851 25.13 0.7 33.3 54 -7.6 18.3
15:50 1022 30.18 851 25.13 0.7 33.2 53 -7.8 18
15:55 1022 30.18 851 25.13 0.7 33.3 54 -7.7 18.2
16:00 1022 30.18 851 25.13 0.8 33.4 53 -7.8 17.9
16:05 1022 30.18 852 25.16 0.8 33.5 53 -7.6 18.3
16:10 1022 30.18 852 25.16 0.9 33.6 54 -7.4 18.6
16:15 1022 30.18 852 25.16 0.8 33.5 53 -7.6 18.3
16:20 1023 30.21 852 25.16 0.7 33.3 54 -7.6 18.4
16:25 1023 30.21 852 25.16 0.7 33.3 53 -7.8 18
16:30 1023 30.21 852 25.16 0.7 33.3 53 -7.7 18.1
16:35 1023 30.21 852 25.16 0.7 33.2 54 -7.6 18.3
16:40 1023 30.21 852 25.16 0.5 32.9 54 -7.8 17.9
16:45 1023 30.21 852 25.16 0.5 32.8 54 -7.9 17.9
16:50 1023 30.21 852 25.16 0.5 32.8 53 -8 17.6
16:55 1023 30.21 852 25.16 0.4 32.8 53 -8.1 17.5
17:00 1023 30.21 852 25.16 0.5 32.9 52 -8.2 17.3
17:05 1023 30.21 852 25.16 0.3 32.5 52 -8.5 16.8
17:10 1023 30.21 852 25.16 0.1 32.2 52 -8.6 16.6
17:15 1023 30.21 852 25.16 -0.2 31.7 53 -8.6 16.4
17:20 1023 30.21 852 25.16 -0.4 31.3 53 -8.8 16.2
17:25 1023 30.21 852 25.16 -0.5 31.2 54 -8.8 16.2
17:30 1023 30.21 852 25.16 -0.6 30.9 55 -8.6 16.5
17:35 1023 30.21 852 25.16 -1 30.1 57 -8.5 16.6
17:40 1023 30.21 852 25.16 -1.4 29.5 57 -8.8 16.2
17:45 1023 30.21 852 25.16 -1.6 29.1 58 -8.8 16.2
17:50 1023 30.21 852 25.16 -1.9 28.5 58 -9 15.8
17:55 1023 30.21 852 25.16 -1.9 28.7 57 -9.2 15.5
18:00 1023 30.21 852 25.16 -1.7 29 57 -9.2 15.5
18:05 1023 30.21 852 25.16 -1.6 29.2 57 -9.1 15.6
18:10 1023 30.21 852 25.16 -1.5 29.4 57 -9 15.8
18:15 1023 30.21 852 25.16 -1.3 29.6 57 -8.8 16.1
18:20 1023 30.21 852 25.16 -1.2 29.8 57 -8.7 16.4
18:25 1023 30.21 852 25.16 -1.2 29.8 57 -8.6 16.5
18:30 1023 30.21 852 25.16 -1.2 29.8 59 -8.3 17.1
18:35 1023 30.21 852 25.16 -1 30.2 57 -8.5 16.7
18:40 1023 30.21 852 25.16 -1 30.2 56 -8.6 16.5
18:45 1023 30.21 852 25.16 -0.9 30.4 56 -8.5 16.6
18:50 1023 30.21 852 25.16 -0.9 30.4 57 -8.4 16.8
18:55 1023 30.21 852 25.16 -1.1 30 57 -8.6 16.6
19:00 1023 30.21 852 25.16 -1.3 29.7 59 -8.4 17
19:05 1023 30.21 852 25.16 -1.5 29.2 60 -8.4 16.9
19:10 1023 30.21 852 25.16 -1.6 29.1 60 -8.5 16.7
19:15 1023 30.21 852 25.16 -1.6 29.1 58 -8.9 16
19:20 1023 30.21 852 25.16 -1.5 29.3 57 -8.9 16
19:25 1023 30.21 852 25.16 -1.3 29.7 58 -8.4 16.8
19:30 1023 30.21 852 25.16 -0.9 30.4 54 -9 15.8
19:35 1023 30.21 852 25.16 -0.7 30.7 55 -8.8 16.2
19:40 1023 30.21 852 25.16 -0.7 30.7 54 -8.8 16.1
19:45 1023 30.21 852 25.16 -0.9 30.5 55 -8.7 16.4
19:50 1023 30.21 852 25.16 -0.8 30.6 55 -8.7 16.4
19:55 1023 30.21 852 25.16 -0.7 30.7 55 -8.6 16.5
20:00 1023 30.21 853 25.19 -0.7 30.7 56 -8.4 16.9
20:05 1023 30.21 853 25.19 -0.9 30.3 56 -8.6 16.5
20:10 1023 30.21 853 25.19 -0.9 30.4 57 -8.4 16.9
20:15 1023 30.21 853 25.19 -1 30.3 57 -8.5 16.7
20:20 1023 30.21 853 25.19 -1 30.3 57 -8.3 17
20:25 1023 30.21 853 25.19 -0.9 30.3 57 -8.5 16.6
20:30 1023 30.21 853 25.19 -1.1 30 56 -8.7 16.3
20:35 1023 30.21 853 25.19 -1.1 30.1 57 -8.6 16.6
20:40 1023 30.21 853 25.19 -1.1 30 57 -8.5 16.6
20:45 1023 30.21 853 25.19 -1.1 30 58 -8.4 16.9
20:50 1023 30.21 853 25.19 -1.2 29.9 56 -8.8 16.2
20:55 1023 30.21 853 25.19 -1.2 29.9 56 -8.8 16.2
21:00 1023 30.21 853 25.19 -1.3 29.6 56 -8.9 15.9
21:05 1023 30.21 853 25.19 -1.4 29.5 57 -8.9 15.9
21:10 1023 30.21 853 25.19 -1.5 29.3 56 -9.1 15.6
21:15 1023 30.21 853 25.19 -1.6 29.2 56 -9.2 15.5
21:20 1023 30.21 853 25.19 -1.6 29.1 57 -9.1 15.5
21:25 1023 30.21 853 25.19 -1.7 28.9 57 -9.2 15.4
21:30 1023 30.21 853 25.19 -1.8 28.7 57 -9.1 15.5
21:35 1024 30.24 853 25.19 -1.9 28.6 57 -9.2 15.4
21:40 1024 30.24 853 25.19 -1.9 28.7 57 -9.2 15.5
21:45 1024 30.24 853 25.19 -1.9 28.5 57 -9.4 15.1
21:50 1024 30.24 853 25.19 -2 28.3 58 -9.2 15.5
21:55 1024 30.24 853 25.19 -2.2 28.1 59 -9.2 15.4
22:00 1024 30.24 853 25.19 -2.2 28 59 -9.2 15.4
22:05 1024 30.24 853 25.19 -2.4 27.7 60 -9.2 15.5
22:10 1024 30.24 853 25.19 -2.5 27.5 60 -9.2 15.5
22:15 1024 30.24 853 25.19 -2.7 27.2 60 -9.3 15.3
22:20 1024 30.24 853 25.19 -2.7 27.1 60 -9.3 15.2
22:25 1024 30.24 853 25.19 -2.8 26.9 62 -9.2 15.5
22:30 1024 30.24 853 25.19 -3 26.5 62 -9.4 15.1
22:35 1024 30.24 853 25.19 -3.4 25.8 63 -9.6 14.7
22:40 1024 30.24 853 25.19 -4 24.8 64 -9.8 14.4
22:45 1024 30.24 853 25.19 -4.1 24.5 65 -9.7 14.5
22:50 1024 30.24 853 25.19 -4.2 24.5 65 -9.9 14.2
22:55 1024 30.24 853 25.19 -3.9 25 63 -10 14
23:00 1024 30.24 853 25.19 -3.9 25 64 -9.7 14.5
23:05 1024 30.24 853 25.19 -4.1 24.7 66 -9.6 14.8
23:10 1024 30.24 853 25.19 -3.9 25 64 -9.8 14.4
23:15 1024 30.24 854 25.22 -3.7 25.4 63 -9.7 14.5
23:20 1024 30.24 854 25.22 -3.6 25.5 63 -9.7 14.6
23:25 1025 30.27 854 25.22 -4 24.8 64 -9.8 14.4
23:30 1025 30.27 854 25.22 -4.5 23.9 66 -9.8 14.3
23:35 1025 30.27 854 25.22 -5 23.1 68 -10 14
23:40 1025 30.27 854 25.22 -5.3 22.5 68 -10.3 13.5
23:45 1025 30.27 854 25.22 -5 23 67 -10.1 13.8
23:50 1025 30.27 854 25.22 -5.3 22.4 69 -10.2 13.6
23:55 1025 30.27 854 25.22 -4.8 23.4 68 -9.9 14.2
24:00 1025 30.27 854 25.22 -4.6 23.8 67 -9.9 14.3